Time;durP1;ratioP1;P1;durP2;ratioP2;P2;SDS_P1;SDS_P2;PMS_P1;PMS_P2;Temp;Humidity;BMP_temperature;BMP_pressure;BME280_temperature;BME280_humidity;BME280_pressure;Samples;Min_cycle;Max_cycle;Signal;HPM_P1;HPM_P2
2024/02/02 00:01:05;;;;;;;9.50;6.30;;;;;;;1.66;78.95;99055.59;107417;1256;62140;-40
2024/02/02 00:03:32;;;;;;;11.40;6.50;;;;;;;1.63;78.88;99056.21;107381;1256;74122;-41
2024/02/02 00:05:59;;;;;;;8.70;5.90;;;;;;;1.59;78.95;99058.92;107356;1258;69354;-40
2024/02/02 00:08:26;;;;;;;9.50;5.60;;;;;;;1.65;78.82;99047.83;107335;1257;72524;-40
2024/02/02 00:10:55;;;;;;;9.40;5.90;;;;;;;1.71;78.64;99050.48;107333;1256;60604;-40
2024/02/02 00:13:22;;;;;;;10.50;5.80;;;;;;;1.69;78.57;99046.27;107326;1257;60438;-40
2024/02/02 00:15:49;;;;;;;8.90;5.70;;;;;;;1.65;78.64;99049.67;107392;1258;74285;-40
2024/02/02 00:18:16;;;;;;;12.20;6.00;;;;;;;1.63;78.65;99051.72;107385;1257;69194;-40
2024/02/02 00:20:43;;;;;;;9.20;6.10;;;;;;;1.67;78.65;99053.90;107432;1258;72503;-40
2024/02/02 00:23:09;;;;;;;8.70;5.40;;;;;;;1.73;78.56;99050.50;107403;1260;60307;-40
2024/02/02 00:25:36;;;;;;;10.20;5.20;;;;;;;1.72;78.47;99050.95;107437;1260;60452;-41
2024/02/02 00:28:03;;;;;;;11.20;6.30;;;;;;;1.67;78.47;99052.52;107499;1258;74439;-40
2024/02/02 00:30:34;;;;;;;12.30;6.20;;;;;;;1.63;78.73;99057.98;107439;1257;69009;-40
2024/02/02 00:33:02;;;;;;;12.10;5.10;;;;;;;1.65;78.74;99058.13;107440;1260;72449;-40
2024/02/02 00:35:32;;;;;;;10.10;5.60;;;;;;;1.68;78.58;99062.27;107456;1260;60323;-40
2024/02/02 00:37:59;;;;;;;11.30;5.90;;;;;;;1.66;78.60;99054.27;107526;1255;60543;-40
2024/02/02 00:40:26;;;;;;;9.80;6.00;;;;;;;1.62;78.71;99048.69;107476;1256;74461;-40
2024/02/02 00:42:52;;;;;;;11.20;5.80;;;;;;;1.58;78.92;99051.54;107445;1258;69043;-40
2024/02/02 00:45:20;;;;;;;8.30;5.90;;;;;;;1.58;78.63;99048.38;107426;1256;73340;-40
2024/02/02 00:47:47;;;;;;;9.30;5.60;;;;;;;1.66;78.62;99052.48;107550;1259;60476;-41
2024/02/02 00:50:16;;;;;;;8.10;5.80;;;;;;;1.62;78.64;99048.81;107460;1256;60505;-40
2024/02/02 00:52:42;;;;;;;11.40;6.10;;;;;;;1.57;78.71;99053.15;107441;1256;74436;-40
2024/02/02 00:55:10;;;;;;;9.40;5.50;;;;;;;1.54;78.85;99056.67;107489;1258;68972;-40
2024/02/02 00:57:36;;;;;;;9.30;5.90;;;;;;;1.58;78.69;99059.08;107418;1260;73105;-40
2024/02/02 01:00:05;;;;;;;8.60;5.10;;;;;;;1.62;78.68;99056.65;107467;1258;60271;-40
2024/02/02 01:02:33;;;;;;;7.70;4.20;;;;;;;1.61;78.66;99057.05;107458;1257;60418;-40
2024/02/02 01:04:59;;;;;;;9.30;5.80;;;;;;;1.58;78.64;99057.73;105883;1256;1002947;-40
2024/02/02 01:07:26;;;;;;;9.20;5.20;;;;;;;1.55;78.69;99054.73;107336;1260;69255;-40
2024/02/02 01:09:53;;;;;;;8.50;5.00;;;;;;;1.58;78.52;99057.69;107292;1255;73283;-40
2024/02/02 01:12:20;;;;;;;11.50;5.10;;;;;;;1.61;78.50;99046.33;107395;1257;60338;-40
2024/02/02 01:14:46;;;;;;;11.80;6.10;;;;;;;1.60;78.32;99049.34;107423;1255;60438;-40
2024/02/02 01:17:13;;;;;;;11.80;5.80;;;;;;;1.56;78.39;99049.92;107436;1255;74246;-40
2024/02/02 01:19:40;;;;;;;12.30;5.70;;;;;;;1.52;78.51;99048.64;107451;1257;69156;-40
2024/02/02 01:22:07;;;;;;;9.00;5.00;;;;;;;1.56;78.38;99054.89;107473;1258;73084;-40
2024/02/02 01:24:34;;;;;;;10.70;4.90;;;;;;;1.60;78.18;99056.73;106600;1260;1003723;-40
2024/02/02 01:27:01;;;;;;;12.90;5.30;;;;;;;1.57;78.23;99057.21;107508;1260;60443;-40
2024/02/02 01:29:29;;;;;;;13.50;5.60;;;;;;;1.53;78.29;99058.23;107368;1257;74121;-41
2024/02/02 01:31:56;;;;;;;12.00;5.40;;;;;;;1.51;78.40;99059.48;107450;1260;69291;-40
2024/02/02 01:34:22;;;;;;;12.40;5.00;;;;;;;1.55;78.30;99064.34;107433;1257;73016;-40
2024/02/02 01:36:49;;;;;;;10.20;5.30;;;;;;;1.60;78.10;99063.00;107412;1255;60327;-40
2024/02/02 01:39:16;;;;;;;12.00;4.60;;;;;;;1.62;78.07;99062.48;107444;1256;60268;-40
2024/02/02 01:41:45;;;;;;;11.70;5.80;;;;;;;1.64;78.13;99061.45;107489;1256;73701;-40
2024/02/02 01:44:12;;;;;;;10.30;5.10;;;;;;;1.68;77.96;99058.11;107458;1257;67535;-40
2024/02/02 01:46:38;;;;;;;9.40;4.60;;;;;;;1.77;77.76;99055.73;107401;1259;73182;-40
2024/02/02 01:49:05;;;;;;;9.00;4.40;;;;;;;1.87;77.59;99062.34;107433;1260;60617;-40
2024/02/02 01:51:32;;;;;;;14.50;5.30;;;;;;;1.90;77.08;99062.70;107457;1255;60463;-40
2024/02/02 01:53:59;;;;;;;7.60;4.80;;;;;;;1.92;77.06;99066.98;107460;1257;74312;-40
2024/02/02 01:56:26;;;;;;;10.50;5.00;;;;;;;1.92;76.95;99062.69;107467;1259;68437;-40
2024/02/02 01:58:53;;;;;;;9.10;4.40;;;;;;;1.95;76.83;99066.23;107436;1255;73293;-40
2024/02/02 02:01:19;;;;;;;14.40;5.20;;;;;;;2.03;76.50;99069.50;107359;1257;60542;-40
2024/02/02 02:03:46;;;;;;;12.00;5.10;;;;;;;2.05;76.32;99067.14;107411;1257;60433;-40
2024/02/02 02:06:13;;;;;;;10.60;4.90;;;;;;;2.04;76.16;99067.55;107313;1255;74357;-40
2024/02/02 02:08:40;;;;;;;9.80;5.00;;;;;;;2.02;76.24;99071.77;107343;1258;68683;-40
2024/02/02 02:11:08;;;;;;;10.40;5.20;;;;;;;2.03;76.28;99070.45;107291;1258;73303;-40
2024/02/02 02:13:34;;;;;;;11.60;5.00;;;;;;;2.09;76.20;99069.91;107342;1258;60964;-41
2024/02/02 02:16:01;;;;;;;11.60;5.30;;;;;;;2.13;76.10;99064.09;107309;1256;60427;-41
2024/02/02 02:18:28;;;;;;;12.60;5.60;;;;;;;2.10;76.04;99068.61;107433;1257;74304;-40
2024/02/02 02:20:55;;;;;;;8.50;4.70;;;;;;;2.06;76.21;99073.80;107469;1258;69095;-40
2024/02/02 02:23:22;;;;;;;8.90;4.70;;;;;;;2.05;76.27;99066.80;107484;1255;72332;-40
2024/02/02 02:25:49;;;;;;;11.30;5.10;;;;;;;2.13;75.97;99071.20;107447;1258;60799;-40
2024/02/02 02:28:16;;;;;;;10.00;5.20;;;;;;;2.17;75.85;99073.08;107437;1256;60443;-40
2024/02/02 02:30:46;;;;;;;11.20;5.30;;;;;;;2.16;75.84;99074.70;107464;1257;74136;-40
2024/02/02 02:33:13;;;;;;;10.20;5.60;;;;;;;2.15;75.80;99070.23;107487;1257;69623;-39
2024/02/02 02:35:39;;;;;;;10.30;5.30;;;;;;;2.14;75.72;99072.55;107457;1257;73059;-41
2024/02/02 02:38:06;;;;;;;10.20;4.80;;;;;;;2.18;75.54;99071.09;107428;1257;61368;-41
2024/02/02 02:40:33;;;;;;;14.50;5.10;;;;;;;2.25;75.31;99075.52;107433;1258;60044;-40
2024/02/02 02:43:00;;;;;;;13.50;5.50;;;;;;;2.23;75.07;99074.40;107447;1257;74363;-40
2024/02/02 02:45:27;;;;;;;11.70;5.30;;;;;;;2.19;75.10;99074.11;107492;1257;68955;-40
2024/02/02 02:47:53;;;;;;;16.50;6.10;;;;;;;2.16;75.07;99079.55;107482;1257;73172;-40
2024/02/02 02:50:20;;;;;;;12.50;5.30;;;;;;;2.13;74.97;99077.13;107453;1258;61132;-40
2024/02/02 02:52:47;;;;;;;15.00;5.10;;;;;;;2.17;74.63;99081.78;107426;1257;60028;-40
2024/02/02 02:55:15;;;;;;;12.90;5.10;;;;;;;2.17;74.67;99086.16;107398;1257;74326;-40
2024/02/02 02:57:42;;;;;;;11.70;5.10;;;;;;;2.13;74.76;99085.20;107313;1257;69196;-40
2024/02/02 03:00:10;;;;;;;12.80;4.90;;;;;;;2.09;74.61;99082.61;107364;1257;73056;-38
2024/02/02 03:02:37;;;;;;;8.90;4.50;;;;;;;2.00;74.66;99079.24;107414;1256;60513;-39
2024/02/02 03:05:05;;;;;;;9.30;4.50;;;;;;;2.06;74.43;99092.35;107550;1257;60463;-39
2024/02/02 03:07:32;;;;;;;10.50;4.20;;;;;;;2.11;74.30;99091.36;107401;1258;73849;-40
2024/02/02 03:09:59;;;;;;;14.40;4.60;;;;;;;2.09;73.93;99090.41;107368;1257;69314;-39
2024/02/02 03:12:26;;;;;;;11.90;4.90;;;;;;;2.05;73.91;99091.46;107323;1258;72142;-39
2024/02/02 03:14:52;;;;;;;15.00;4.40;;;;;;;2.01;73.92;99094.25;107399;1255;60312;-39
2024/02/02 03:17:19;;;;;;;13.50;4.70;;;;;;;1.97;73.72;99097.25;107435;1259;60448;-39
2024/02/02 03:19:46;;;;;;;10.10;4.40;;;;;;;1.94;73.71;99100.11;107438;1260;74322;-40
2024/02/02 03:22:13;;;;;;;9.20;4.50;;;;;;;1.98;73.60;99098.36;107442;1257;69076;-39
2024/02/02 03:24:39;;;;;;;11.40;4.50;;;;;;;2.02;73.49;99106.81;107489;1257;72791;-39
2024/02/02 03:27:06;;;;;;;7.80;4.10;;;;;;;2.01;73.50;99107.73;107470;1255;60527;-39
2024/02/02 03:29:33;;;;;;;8.70;3.80;;;;;;;1.96;73.59;99110.36;107418;1257;60427;-40
2024/02/02 03:32:00;;;;;;;11.30;4.50;;;;;;;1.92;73.56;99115.83;107446;1257;74440;-40
2024/02/02 03:37:18;;;;;;;15.30;4.30;;;;;;;1.92;73.48;99122.36;104353;1289;599663;-39
2024/02/02 03:39:46;;;;;;;13.50;5.00;;;;;;;1.89;73.25;99122.77;106740;1263;59313;-39
2024/02/02 03:42:13;;;;;;;11.70;4.60;;;;;;;1.84;73.24;99127.11;106776;1263;59301;-39
2024/02/02 03:44:41;;;;;;;9.80;4.00;;;;;;;1.82;73.23;99128.23;106709;1270;72273;-39
2024/02/02 03:47:09;;;;;;;10.90;3.80;;;;;;;1.86;72.76;99133.54;107047;1256;68348;-39
2024/02/02 03:49:37;;;;;;;13.20;4.50;;;;;;;1.91;72.51;99133.17;107040;1257;71473;-40
2024/02/02 03:52:05;;;;;;;12.70;4.10;;;;;;;1.88;72.27;99135.93;107051;1260;174570;-39
2024/02/02 03:54:33;;;;;;;10.90;3.80;;;;;;;1.86;72.26;99132.14;107143;1256;59330;-39
2024/02/02 03:57:01;;;;;;;9.40;3.50;;;;;;;1.82;72.18;99136.69;107146;1260;72237;-39
2024/02/02 03:59:29;;;;;;;13.80;3.60;;;;;;;1.79;72.06;99142.42;107084;1256;68383;-39
2024/02/02 04:01:57;;;;;;;8.40;3.50;;;;;;;1.77;72.11;99148.42;107136;1257;72676;-39
2024/02/02 04:04:24;;;;;;;10.10;3.40;;;;;;;1.82;71.77;99148.45;107204;1257;60816;-38
2024/02/02 04:06:52;;;;;;;14.30;3.70;;;;;;;1.83;71.54;99154.77;107314;1255;60520;-38
2024/02/02 04:09:20;;;;;;;12.30;3.60;;;;;;;1.80;71.34;99154.00;107272;1257;73001;-38
2024/02/02 04:11:48;;;;;;;11.00;3.70;;;;;;;1.77;71.14;99160.71;107303;1254;68668;-38
2024/02/02 04:14:15;;;;;;;13.00;3.70;;;;;;;1.73;71.18;99163.73;107263;1257;72674;-38
2024/02/02 04:16:43;;;;;;;12.10;3.60;;;;;;;1.69;71.07;99167.36;107300;1256;61039;-37
2024/02/02 04:19:15;;;;;;;9.40;3.40;;;;;;;1.73;70.92;99167.92;107247;1255;60024;-39
2024/02/02 04:21:42;;;;;;;13.60;3.30;;;;;;;1.80;70.77;99172.80;107271;1256;72988;-39
2024/02/02 04:24:10;;;;;;;9.10;2.90;;;;;;;1.82;70.14;99172.13;107253;1256;68742;-39
2024/02/02 04:26:38;;;;;;;13.40;3.60;;;;;;;1.80;69.55;99172.08;107241;1257;71741;-39
2024/02/02 04:29:06;;;;;;;9.60;3.10;;;;;;;1.77;68.93;99171.40;107280;1256;59518;-39
2024/02/02 04:31:33;;;;;;;9.70;3.30;;;;;;;1.74;68.89;99175.10;107273;1257;60007;-39
2024/02/02 04:34:01;;;;;;;9.40;2.80;;;;;;;1.70;68.09;99179.10;107255;1255;72685;-38
2024/02/02 04:36:30;;;;;;;8.20;2.80;;;;;;;1.66;68.40;99181.48;107218;1257;68690;-39
2024/02/02 04:38:58;;;;;;;9.60;2.90;;;;;;;1.66;68.06;99185.60;107253;1256;72673;-39
2024/02/02 04:41:26;;;;;;;6.40;2.40;;;;;;;1.72;67.75;99187.19;107269;1256;59733;-39
2024/02/02 04:43:53;;;;;;;10.10;2.80;;;;;;;1.71;67.44;99187.95;107129;1257;59516;-39
2024/02/02 04:46:21;;;;;;;10.90;2.80;;;;;;;1.68;67.57;99195.02;107231;1253;73037;-39
2024/02/02 04:48:48;;;;;;;11.00;3.10;;;;;;;1.64;67.46;99198.13;107178;1254;68714;-39
2024/02/02 04:51:17;;;;;;;11.60;3.20;;;;;;;1.60;67.31;99201.70;107175;1254;71467;-39
2024/02/02 04:53:45;;;;;;;9.60;2.60;;;;;;;1.55;67.47;99205.50;107195;1254;60190;-38
2024/02/02 04:56:12;;;;;;;9.00;2.60;;;;;;;1.50;67.43;99212.41;107207;1254;59538;-39
2024/02/02 04:58:40;;;;;;;12.00;3.10;;;;;;;1.49;67.42;99216.86;107263;1255;73873;-39
2024/02/02 05:01:08;;;;;;;8.00;2.40;;;;;;;1.55;67.33;99215.50;107317;1260;67852;-38
2024/02/02 05:03:36;;;;;;;10.60;3.10;;;;;;;1.59;67.34;99221.27;107287;1254;72679;-39
2024/02/02 05:06:04;;;;;;;11.10;2.80;;;;;;;1.60;67.55;99226.69;107301;1256;59733;-39
2024/02/02 05:08:32;;;;;;;10.90;2.80;;;;;;;1.61;67.53;99226.34;107304;1254;60042;-38
2024/02/02 05:10:59;;;;;;;8.80;2.60;;;;;;;1.61;67.54;99227.05;107277;1254;71778;-38
2024/02/02 05:13:27;;;;;;;9.10;3.00;;;;;;;1.61;67.08;99226.84;107324;1257;67270;-39
2024/02/02 05:15:55;;;;;;;9.10;2.60;;;;;;;1.58;66.37;99227.33;107257;1256;71418;-38
2024/02/02 05:18:22;;;;;;;13.50;3.20;;;;;;;1.56;66.47;99223.46;107246;1256;59586;-39
2024/02/02 05:20:50;;;;;;;10.20;2.80;;;;;;;1.55;66.34;99230.23;107293;1254;60008;-39
2024/02/02 05:23:18;;;;;;;10.60;3.00;;;;;;;1.61;66.11;99237.48;107311;1254;73076;-39
2024/02/02 05:25:45;;;;;;;10.60;3.10;;;;;;;1.66;65.92;99235.20;107212;1254;67851;-38
2024/02/02 05:28:13;;;;;;;9.00;2.70;;;;;;;1.63;65.85;99236.99;107166;1255;72734;-38
2024/02/02 05:30:41;;;;;;;11.30;3.80;;;;;;;1.61;65.99;99236.99;107207;1254;59616;-39
2024/02/02 05:33:08;;;;;;;11.20;3.10;;;;;;;1.57;65.93;99242.78;107195;1257;60026;-38
2024/02/02 05:35:36;;;;;;;11.60;3.10;;;;;;;1.54;66.05;99248.64;106407;1256;1002965;-38
2024/02/02 05:38:04;;;;;;;9.20;2.90;;;;;;;1.50;66.43;99251.71;107139;1256;67552;-39
2024/02/02 05:40:32;;;;;;;8.70;2.80;;;;;;;1.48;66.46;99252.46;107171;1257;72689;-39
2024/02/02 05:43:00;;;;;;;7.20;2.40;;;;;;;1.45;66.70;99261.20;107181;1257;59533;-38
2024/02/02 05:45:28;;;;;;;10.40;2.70;;;;;;;1.46;66.69;99260.37;107253;1255;60033;-38
2024/02/02 05:47:55;;;;;;;9.40;3.00;;;;;;;1.51;66.68;99265.38;107233;1256;72983;-39
2024/02/02 05:50:23;;;;;;;12.10;3.00;;;;;;;1.51;66.52;99267.09;107256;1257;67093;-38
2024/02/02 05:52:50;;;;;;;9.10;2.90;;;;;;;1.51;66.88;99271.05;107251;1256;72540;-38
2024/02/02 05:55:18;;;;;;;13.00;2.70;;;;;;;1.51;66.88;99273.80;107218;1255;59704;-39
2024/02/02 05:57:45;;;;;;;17.00;4.00;;;;;;;1.49;66.90;99280.92;107259;1255;59720;-39
2024/02/02 06:00:13;;;;;;;8.90;3.10;;;;;;;1.49;67.41;99287.61;107200;1256;72848;-38
2024/02/02 06:02:44;;;;;;;11.10;3.60;;;;;;;1.48;67.62;99290.23;107258;1256;67408;-38
2024/02/02 06:05:13;;;;;;;9.20;3.30;;;;;;;1.48;67.86;99289.92;107286;1257;72497;-39
2024/02/02 06:07:40;;;;;;;9.70;2.90;;;;;;;1.53;68.07;99288.52;107258;1260;59658;-39
2024/02/02 06:10:08;;;;;;;10.40;3.10;;;;;;;1.61;68.01;99294.38;107280;1255;60195;-39
2024/02/02 06:12:36;;;;;;;9.00;3.40;;;;;;;1.64;68.13;99291.38;107336;1256;71809;-39
2024/02/02 06:15:06;;;;;;;10.60;2.90;;;;;;;1.65;68.11;99293.87;107263;1256;68668;-39
2024/02/02 06:17:34;;;;;;;13.60;3.60;;;;;;;1.64;68.06;99292.33;107217;1256;72493;-38
2024/02/02 06:20:02;;;;;;;11.20;3.30;;;;;;;1.63;68.06;99305.02;107168;1257;59641;-38
2024/02/02 06:22:30;;;;;;;16.50;3.90;;;;;;;1.59;68.20;99304.69;107211;1256;60128;-39
2024/02/02 06:24:58;;;;;;;15.20;3.40;;;;;;;1.52;68.41;99310.08;107183;1256;73054;-39
2024/02/02 06:27:27;;;;;;;9.30;3.20;;;;;;;1.49;68.40;99310.20;107148;1256;67207;-38
2024/02/02 06:29:55;;;;;;;10.30;3.70;;;;;;;1.51;68.56;99311.54;107195;1256;72480;-39
2024/02/02 06:32:23;;;;;;;11.30;3.50;;;;;;;1.56;68.43;99317.45;107145;1256;59743;-39
2024/02/02 06:34:55;;;;;;;9.60;3.40;;;;;;;1.55;68.57;99318.23;107172;1256;59241;-39
2024/02/02 06:37:23;;;;;;;16.70;3.90;;;;;;;1.53;68.57;99321.81;107224;1260;73071;-38
2024/02/02 06:39:56;;;;;;;19.40;4.00;;;;;;;1.53;68.86;99327.20;107245;1256;68344;-39
2024/02/02 06:42:26;;;;;;;14.60;3.60;;;;;;;1.51;68.92;99329.54;107273;1255;72648;-39
2024/02/02 06:44:55;;;;;;;15.00;4.30;;;;;;;1.50;69.00;99333.78;107262;1256;59517;-38
2024/02/02 06:47:23;;;;;;;10.40;3.10;;;;;;;1.51;69.22;99333.11;107048;1256;60112;-39
2024/02/02 06:49:51;;;;;;;11.80;3.30;;;;;;;1.59;69.01;99338.23;107189;1256;73010;-39
2024/02/02 06:52:19;;;;;;;11.10;3.30;;;;;;;1.67;68.87;99340.85;107260;1257;68698;-39
2024/02/02 06:54:47;;;;;;;10.50;3.00;;;;;;;1.67;68.88;99338.65;107111;1256;72822;-38
2024/02/02 06:57:15;;;;;;;11.60;3.70;;;;;;;1.64;68.68;99344.70;107258;1256;59628;-40
2024/02/02 06:59:46;;;;;;;14.10;3.70;;;;;;;1.63;68.65;99343.93;107287;1256;59669;-39
2024/02/02 07:02:20;;;;;;;13.80;3.40;;;;;;;1.64;68.90;99342.84;107276;1260;73047;-39
2024/02/02 07:04:48;;;;;;;12.50;3.70;;;;;;;1.67;68.85;99345.66;106515;1256;1002881;-40
2024/02/02 07:07:16;;;;;;;11.70;3.50;;;;;;;1.69;68.71;99346.25;107631;1253;71353;-40
2024/02/02 07:09:51;;;;;;;11.80;3.40;;;;;;;1.78;68.39;99348.95;107602;1253;60926;-40
2024/02/02 07:12:34;;;;;;;13.20;3.30;;;;;;;1.87;68.16;99346.65;107552;1253;59567;-39
2024/02/02 07:15:03;;;;;;;10.20;3.70;;;;;;;1.89;67.79;99347.89;107549;1253;73491;-40
2024/02/02 07:17:36;;;;;;;12.70;3.30;;;;;;;1.90;67.64;99347.86;107620;1253;68697;-40
2024/02/02 07:20:09;;;;;;;12.50;3.50;;;;;;;1.90;67.43;99345.92;107663;1253;71442;-39
2024/02/02 07:22:41;;;;;;;10.40;3.30;;;;;;;1.91;67.54;99346.34;107553;1253;60394;-40
2024/02/02 07:25:13;;;;;;;15.80;3.80;;;;;;;1.92;67.18;99345.69;107669;1253;59509;-40
2024/02/02 07:27:40;;;;;;;13.10;3.50;;;;;;;1.94;67.22;99351.15;107668;1253;73791;-40
2024/02/02 07:30:43;;;;;;;16.20;3.90;;;;;;;2.04;66.91;99342.23;107578;1252;67588;-39
2024/02/02 07:33:17;;;;;;;14.10;3.70;;;;;;;2.20;66.49;99341.21;107550;1256;72260;-40
2024/02/02 07:35:45;;;;;;;15.40;3.60;;;;;;;2.29;65.80;99341.96;107644;1253;59625;-40
2024/02/02 07:38:46;;;;;;;16.30;3.70;;;;;;;2.36;65.39;99340.40;107664;1252;60275;-39
2024/02/02 07:41:18;;;;;;;12.80;3.30;;;;;;;2.45;64.98;99338.09;107600;1254;72214;-40
2024/02/02 07:43:47;;;;;;;12.60;3.40;;;;;;;2.53;64.88;99340.66;107720;1253;68886;-39
2024/02/02 07:46:15;;;;;;;11.00;3.00;;;;;;;2.62;64.64;99343.77;107617;1253;71459;-39
2024/02/02 07:48:44;;;;;;;10.50;3.70;;;;;;;2.70;64.32;99345.31;107593;1253;60428;-40
2024/02/02 07:51:12;;;;;;;13.10;4.30;;;;;;;2.75;63.73;99346.63;107617;1253;60322;-40
2024/02/02 07:53:43;;;;;;;14.40;3.80;;;;;;;2.78;63.70;99350.92;107711;1251;73866;-39
2024/02/02 07:56:12;;;;;;;13.60;3.70;;;;;;;2.81;63.40;99347.24;107666;1253;67305;-40
2024/02/02 07:58:40;;;;;;;8.50;3.20;;;;;;;2.87;62.87;99342.29;107658;1253;72740;-40
2024/02/02 08:01:11;;;;;;;10.80;3.00;;;;;;;2.91;62.60;99342.83;107539;1257;60438;-39
2024/02/02 08:03:38;;;;;;;11.30;3.30;;;;;;;2.90;62.52;99344.12;107579;1253;60553;-40
2024/02/02 08:06:06;;;;;;;9.80;3.10;;;;;;;2.94;62.58;99343.82;107581;1253;73928;-40
2024/02/02 08:08:36;;;;;;;12.40;3.40;;;;;;;3.04;62.37;99345.20;107539;1253;68797;-40
2024/02/02 08:11:04;;;;;;;10.60;3.00;;;;;;;3.11;61.41;99341.80;107531;1257;70808;-40
2024/02/02 08:13:32;;;;;;;15.10;3.50;;;;;;;3.13;61.08;99348.55;107524;1253;60472;-40
2024/02/02 08:15:59;;;;;;;13.30;3.00;;;;;;;3.12;60.95;99349.75;107564;1252;60410;-40
2024/02/02 08:18:27;;;;;;;13.30;3.60;;;;;;;3.10;61.08;99352.23;107550;1253;72867;-39
2024/02/02 08:20:56;;;;;;;10.60;3.40;;;;;;;3.07;61.17;99360.38;107544;1253;68385;-39
2024/02/02 08:23:25;;;;;;;12.00;3.70;;;;;;;3.06;61.51;99363.52;107577;1256;72436;-40
2024/02/02 08:25:53;;;;;;;14.00;3.60;;;;;;;3.05;61.08;99366.55;107561;1253;61381;-40
2024/02/02 08:28:21;;;;;;;10.20;3.10;;;;;;;3.05;60.93;99369.63;107580;1253;60339;-39
2024/02/02 08:30:48;;;;;;;12.00;3.40;;;;;;;3.09;60.97;99370.46;107613;1256;73894;-40
2024/02/02 08:33:16;;;;;;;13.30;3.90;;;;;;;3.13;61.21;99371.38;107639;1253;68306;-40
2024/02/02 08:35:43;;;;;;;11.60;3.50;;;;;;;3.18;61.32;99372.83;107630;1254;72705;-39
2024/02/02 08:38:11;;;;;;;14.30;3.80;;;;;;;3.25;61.57;99373.02;107598;1253;60160;-39
2024/02/02 08:40:43;;;;;;;12.10;3.40;;;;;;;3.34;61.47;99378.11;106889;1252;1002975;-40
2024/02/02 08:43:19;;;;;;;15.20;3.20;;;;;;;3.40;61.15;99381.75;107587;1259;72139;-39
2024/02/02 08:46:10;;;;;;;12.20;2.80;;;;;;;3.42;61.06;99378.27;107662;1256;66637;-39
2024/02/02 08:48:40;;;;;;;15.80;3.50;;;;;;;3.44;60.83;99375.46;107608;1253;72997;-40
2024/02/02 08:51:40;;;;;;;10.70;3.20;;;;;;;3.44;60.75;99375.23;107629;1253;60148;-40
2024/02/02 08:54:36;;;;;;;9.30;2.80;;;;;;;3.50;60.51;99376.48;107466;1253;60441;-40
2024/02/02 08:57:45;;;;;;;12.60;3.00;;;;;;;3.63;60.26;99377.81;107586;1253;73915;-39
2024/02/02 09:00:30;;;;;;;14.50;3.70;;;;;;;3.76;59.53;99375.39;107373;1253;68870;-40
2024/02/02 09:03:30;;;;;;;11.30;3.10;;;;;;;3.89;59.55;99374.09;107560;1253;71520;-40
2024/02/02 09:05:58;;;;;;;;;;;;;;;4.05;59.29;99374.69;107581;1253;60405;-39
2024/02/02 09:08:33;;;;;;;17.10;3.70;;;;;;;4.12;57.67;99373.97;107556;1257;60296;-40
2024/02/02 09:11:02;;;;;;;10.90;3.30;;;;;;;4.21;58.45;99380.63;107678;1253;73880;-40
2024/02/02 09:13:30;;;;;;;10.00;2.60;;;;;;;4.38;57.71;99377.92;107661;1252;68369;-39
2024/02/02 09:15:58;;;;;;;11.80;3.00;;;;;;;4.56;56.86;99380.08;107523;1253;71387;-39
2024/02/02 09:18:33;;;;;;;12.30;3.00;;;;;;;4.60;54.23;99376.91;107636;1253;59355;-39
2024/02/02 09:21:02;;;;;;;9.90;3.10;;;;;;;4.49;53.58;99378.35;107679;1253;60287;-40
2024/02/02 09:23:31;;;;;;;6.50;2.40;;;;;;;4.36;54.75;99384.75;107674;1253;73933;-39
2024/02/02 09:25:59;;;;;;;10.00;2.60;;;;;;;4.26;54.27;99393.21;107672;1253;67579;-39
2024/02/02 09:28:27;;;;;;;10.90;2.70;;;;;;;4.12;54.02;99393.63;107619;1252;72474;-40
2024/02/02 09:31:02;;;;;;;9.30;2.20;;;;;;;4.03;54.10;99390.88;107616;1253;60420;-40
2024/02/02 09:33:30;;;;;;;8.10;2.30;;;;;;;4.03;53.53;99385.20;107652;1253;60435;-40
2024/02/02 09:35:59;;;;;;;11.80;2.70;;;;;;;4.04;54.07;99387.85;107634;1253;73918;-40
2024/02/02 09:38:27;;;;;;;7.30;2.30;;;;;;;3.96;53.88;99373.18;106962;1253;1003444;-39
2024/02/02 09:41:01;;;;;;;8.50;2.60;;;;;;;3.98;54.28;99381.50;107402;1253;72921;-40
2024/02/02 09:43:48;;;;;;;12.70;2.90;;;;;;;3.97;54.37;99383.17;107568;1252;60425;-40
2024/02/02 09:46:26;;;;;;;11.00;2.90;;;;;;;3.96;54.40;99384.50;107598;1253;60400;-40
2024/02/02 09:49:10;;;;;;;9.50;2.40;;;;;;;3.93;54.18;99386.52;107612;1251;73965;-40
2024/02/02 09:51:43;;;;;;;8.50;2.50;;;;;;;3.91;54.81;99392.17;107568;1253;67239;-39
2024/02/02 09:54:14;;;;;;;11.30;2.30;;;;;;;3.90;54.50;99387.56;107645;1253;71480;-39
2024/02/02 09:57:12;;;;;;;8.60;2.30;;;;;;;3.87;53.95;99392.00;107608;1257;59569;-39
2024/02/02 10:00:01;;;;;;;6.70;2.60;;;;;;;3.81;54.55;99393.86;107654;1251;62216;-39
2024/02/02 10:02:51;;;;;;;9.00;2.60;;;;;;;3.81;54.71;99392.48;107550;1259;73783;-40
2024/02/02 10:05:44;;;;;;;8.10;2.40;;;;;;;3.91;54.94;99394.85;107669;1253;66537;-40
2024/02/02 10:08:43;;;;;;;9.40;2.60;;;;;;;4.15;54.95;99399.16;107640;1253;71463;-40
2024/02/02 10:11:26;;;;;;;9.00;2.50;;;;;;;4.42;54.43;99404.33;107634;1253;60402;-40
2024/02/02 10:14:09;;;;;;;9.40;2.40;;;;;;;4.54;53.76;99398.27;107632;1253;60486;-40
2024/02/02 10:16:59;;;;;;;8.10;2.80;;;;;;;4.52;52.97;99397.05;107659;1253;73830;-39
2024/02/02 10:19:50;;;;;;;7.20;2.70;;;;;;;4.42;53.12;99395.26;107596;1253;67136;-39
2024/02/02 10:22:38;;;;;;;11.00;3.60;;;;;;;4.31;53.36;99398.36;107566;1257;71455;-39
2024/02/02 10:25:15;;;;;;;13.20;2.80;;;;;;;4.22;52.92;99404.08;107590;1256;60316;-40
2024/02/02 10:28:20;;;;;;;11.40;2.60;;;;;;;4.12;53.06;99404.61;107570;1253;60435;-40
2024/02/02 10:31:06;;;;;;;7.20;2.40;;;;;;;4.07;53.27;99410.77;106855;1256;1003090;-40
2024/02/02 10:33:59;;;;;;;11.70;2.40;;;;;;;4.06;53.65;99408.95;107611;1252;67566;-40
2024/02/02 10:36:49;;;;;;;13.30;2.90;;;;;;;4.04;54.36;99409.91;107599;1253;72809;-40
2024/02/02 10:39:32;;;;;;;10.00;2.60;;;;;;;4.00;54.32;99409.77;107415;1253;60225;-39
2024/02/02 10:42:19;;;;;;;11.30;3.20;;;;;;;4.02;54.09;99411.91;107589;1253;60391;-39
2024/02/02 10:45:00;;;;;;;10.10;2.50;;;;;;;4.08;54.27;99417.83;107648;1254;73110;-39
2024/02/02 10:47:53;;;;;;;11.50;3.10;;;;;;;4.11;53.99;99419.39;107621;1257;68531;-40
2024/02/02 10:50:27;;;;;;;11.30;2.90;;;;;;;4.07;54.18;99418.27;107621;1253;71467;-40
2024/02/02 10:53:04;;;;;;;9.50;2.60;;;;;;;4.04;54.37;99418.20;107638;1253;60394;-40
2024/02/02 10:55:40;;;;;;;8.40;2.90;;;;;;;4.03;54.54;99419.27;107681;1253;60351;-40
2024/02/02 10:58:27;;;;;;;11.90;3.00;;;;;;;3.99;54.74;99426.41;107637;1253;73995;-40
2024/02/02 11:01:18;;;;;;;14.90;3.00;;;;;;;3.99;54.74;99421.27;107654;1253;67593;-39
2024/02/02 11:04:00;;;;;;;8.40;2.50;;;;;;;4.03;53.97;99413.94;107542;1254;71456;-39
2024/02/02 11:06:49;;;;;;;12.60;3.00;;;;;;;4.03;54.02;99413.54;107555;1253;60537;-40
2024/02/02 11:09:32;;;;;;;9.10;2.70;;;;;;;3.99;54.30;99415.30;107588;1251;60611;-40
2024/02/02 11:12:19;;;;;;;13.00;2.70;;;;;;;3.95;54.26;99413.73;107622;1255;72629;-40
2024/02/02 11:14:56;;;;;;;12.10;3.00;;;;;;;3.90;54.29;99420.95;107562;1254;68917;-40
2024/02/02 11:17:33;;;;;;;8.60;3.50;;;;;;;3.87;54.22;99420.88;107492;1253;72717;-40
2024/02/02 11:20:18;;;;;;;9.50;2.40;;;;;;;3.88;54.51;99424.98;107558;1253;59349;-40
2024/02/02 11:22:49;;;;;;;10.00;3.20;;;;;;;3.88;54.20;99426.23;107594;1253;62323;-40
2024/02/02 11:25:40;;;;;;;9.80;2.80;;;;;;;3.94;54.20;99427.92;107602;1253;73985;-39
2024/02/02 11:28:18;;;;;;;9.70;2.60;;;;;;;4.07;53.53;99420.02;107529;1253;67563;-41
2024/02/02 11:30:55;;;;;;;9.90;2.80;;;;;;;4.13;52.93;99419.66;107607;1253;70497;-40
2024/02/02 11:33:46;;;;;;;8.50;2.70;;;;;;;4.07;52.46;99422.25;107560;1253;60313;-40
2024/02/02 11:36:14;;;;;;;8.10;2.70;;;;;;;3.89;52.28;99429.92;107591;1254;60537;-41
2024/02/02 11:38:49;;;;;;;14.00;2.80;;;;;;;3.71;52.68;99426.80;107607;1254;73914;-40
2024/02/02 11:41:19;;;;;;;11.90;2.50;;;;;;;3.58;53.50;99429.77;107648;1253;66495;-40
2024/02/02 11:43:47;;;;;;;11.40;3.00;;;;;;;3.50;54.17;99431.54;107615;1254;72770;-40
2024/02/02 11:46:16;;;;;;;9.70;3.10;;;;;;;3.48;54.61;99431.17;107587;1254;60398;-40
2024/02/02 11:48:44;;;;;;;9.70;2.80;;;;;;;3.46;55.11;99427.84;107571;1257;60389;-41